Latest Weather Observations for Gayndah

IDQ60801

Issued at 10:32 am EST Friday 28 April 2017 (issued every 30 minutes, with the page automatically refreshed every 10 minutes)

About weather observations | Map of weather stations | Latest weather observations for QLD | Other Formats
Station Details ID: 039066 Name: GAYNDAH AIRPORT Lat: -25.62 Lon: 151.62 Height: 110.9 m
Data from the previous 72 hours. | See also: Recent months at Gayndah
Date/Time
EST
Temp
°C
App
Temp
°C
Dew
Point
°C
Rel
Hum
%
Delta-T
°C
Wind Press
QNH
hPa
Press
MSL
hPa
Rain since
9am
mm
Dir  Spd
km/h
Gust
km/h
Spd
kts
Gust
kts
28/10:30am 17.6 13.7 5.5 45 5.9 SSW 15 20 8 11 1017.9 1017.5 0.0
28/10:00am 16.6 11.9 5.3 47 5.4 SW 19 24 10 13 1018.4 1018.0 0.0
28/09:30am 15.8 10.9 5.1 49 5.1 SW 20 30 11 16 1018.5 1018.1 0.0
28/09:00am 14.5 9.5 4.5 51 4.6 SSW 20 28 11 15 1018.3 1017.9 0.0
28/08:30am 13.4 9.4 4.8 56 4.0 SW 15 20 8 11 1018.2 1017.8 0.0
28/08:00am 11.9 8.2 4.2 59 3.5 WSW 13 17 7 9 1018.1 1017.7 0.0
28/07:30am 10.8 7.9 4.5 65 2.8 WSW 9 15 5 8 1018.0 1017.6 0.0
28/07:00am 9.4 7.0 4.2 70 2.3 SW 6 9 3 5 1017.5 1017.1 0.0
28/06:30am 8.1 5.5 3.4 72 2.0 SSW 6 9 3 5 1017.4 1016.9 0.0
28/06:00am 8.2 6.0 3.5 72 2.0 SSW 4 7 2 4 1017.0 1016.5 0.0
28/05:30am 8.2 6.0 3.3 71 2.1 WSW 4 7 2 4 1016.7 1016.2 0.0
28/05:00am 8.5 5.4 3.6 71 2.1 WSW 9 15 5 8 1016.4 1015.9 0.0
28/04:30am 8.3 5.6 3.8 73 2.0 SW 7 9 4 5 1016.4 1015.9 0.0
28/04:00am 8.9 5.8 3.5 69 2.3 SW 9 13 5 7 1016.3 1015.8 0.0
28/03:30am 9.2 6.5 3.6 68 2.4 SW 7 11 4 6 1016.2 1015.7 0.0
28/03:00am 9.8 7.6 3.5 65 2.8 WSW 4 6 2 3 1016.1 1015.6 0.0
28/02:30am 9.7 6.7 3.9 67 2.6 WSW 9 13 5 7 1016.2 1015.7 0.0
28/02:00am 10.1 7.6 3.8 65 2.8 SSW 6 7 3 4 1016.8 1016.3 0.0
28/01:30am 10.6 8.0 3.4 61 3.2 WSW 6 9 3 5 1017.3 1016.8 0.0
28/01:00am 11.3 8.6 3.8 60 3.3 SSE 7 13 4 7 1017.6 1017.2 0.0
28/12:30am 11.4 7.9 3.4 58 3.5 SW 11 13 6 7 1017.5 1017.1 0.0
28/12:00am 11.8 8.3 3.6 57 3.7 SW 11 15 6 8 1017.5 1017.1 0.0
 
Date/Time
EST
Temp
°C
App
Temp
°C
Dew
Point
°C
Rel
Hum
%
Delta-T
°C
Wind Press
QNH
hPa
Press
MSL
hPa
Rain since
9am
mm
Dir  Spd
km/h
Gust
km/h
Spd
kts
Gust
kts
27/11:30pm 12.4 8.5 3.4 54 4.0 SW 13 19 7 10 1017.5 1017.1 0.0
27/11:00pm 12.7 9.2 3.4 53 4.2 SSW 11 17 6 9 1017.6 1017.2 0.0
27/10:30pm 12.6 9.1 3.3 53 4.2 SW 11 13 6 7 1017.6 1017.2 0.0
27/10:00pm 13.2 9.7 3.3 51 4.4 SW 11 15 6 8 1017.3 1016.8 0.0
27/09:30pm 13.6 10.5 3.4 50 4.6 SW 9 15 5 8 1017.4 1016.9 0.0
27/09:00pm 15.4 11.0 2.9 43 5.7 SSW 15 24 8 13 1017.4 1016.9 0.0
27/08:30pm 15.4 11.0 2.9 43 5.7 SSW 15 22 8 12 1017.2 1016.7 0.0
27/08:00pm 16.7 11.5 2.3 38 6.5 SSW 19 28 10 15 1016.9 1016.4 0.0
27/07:30pm 17.0 11.8 2.2 37 6.7 SSW 19 32 10 17 1016.3 1015.8 0.0
27/07:00pm 17.5 12.1 2.3 36 6.9 SSW 20 32 11 17 1015.6 1015.1 0.0
27/06:30pm 17.9 12.7 2.6 36 7.0 SSW 19 30 10 16 1015.2 1014.7 0.0
27/06:00pm 18.4 13.0 2.7 35 7.3 SSW 20 30 11 16 1014.9 1014.4 0.0
27/05:30pm 18.9 14.6 3.5 36 7.3 SSW 15 26 8 14 1014.5 1014.0 0.0
27/05:00pm 20.0 15.3 3.3 33 7.9 SSW 17 24 9 13 1013.8 1013.4 0.0
27/04:30pm 20.9 16.3 3.6 32 8.3 SW 17 26 9 14 1013.3 1012.9 0.0
27/04:00pm 21.3 16.2 3.0 30 8.7 SW 19 30 10 16 1013.2 1012.8 0.0
27/03:30pm 21.5 16.9 3.7 31 8.6 SW 17 24 9 13 1013.2 1012.8 0.0
27/03:00pm 21.6 16.4 3.8 31 8.6 SW 20 28 11 15 1013.3 1012.9 0.0
27/02:30pm 21.4 17.2 4.0 32 8.5 SW 15 24 8 13 1013.3 1012.9 0.0
27/02:00pm 21.0 16.1 4.1 33 8.2 WSW 19 26 10 14 1013.4 1013.0 0.0
27/01:30pm 21.1 16.2 5.1 35 7.9 SW 20 32 11 17 1013.6 1013.2 0.0
27/01:00pm 20.4 15.6 4.8 36 7.6 WSW 19 35 10 19 1014.1 1013.7 0.0
27/12:30pm 20.6 16.7 6.9 41 7.0 WSW 17 28 9 15 1014.5 1014.0 0.0
27/12:00pm 20.0 15.4 6.7 42 6.7 SW 20 33 11 18 1015.0 1014.5 0.0
27/11:30am 19.3 14.2 6.1 42 6.6 SW 22 32 12 17 1015.6 1015.1 0.0
27/11:00am 18.9 15.0 7.0 46 6.0 WSW 17 30 9 16 1016.2 1015.7 0.0
27/10:30am 18.0 14.1 7.1 49 5.5 SW 17 24 9 13 1016.7 1016.2 0.0
27/10:00am 17.3 13.6 6.2 48 5.5 SSW 15 24 8 13 1016.9 1016.4 0.0
27/09:30am 16.5 12.9 6.9 53 4.8 SSW 15 20 8 11 1017.1 1016.6 0.0
27/09:00am 15.8 12.3 7.3 57 4.2 SSW 15 24 8 13 1017.3 1016.8 6.6
27/08:30am 15.0 10.8 7.3 60 3.8 SW 19 30 10 16 1017.0 1016.5 6.6
27/08:00am 14.4 11.0 7.7 64 3.3 SW 15 22 8 12 1016.6 1016.1 6.6
27/07:30am 13.8 11.2 7.6 66 3.1 WSW 11 15 6 8 1016.2 1015.7 6.6
27/07:00am 13.2 10.9 7.4 68 2.8 WSW 9 15 5 8 1015.8 1015.3 6.6
27/06:30am 12.8 10.8 7.3 69 2.7 WSW 7 11 4 6 1015.5 1015.0 6.6
27/06:00am 13.2 11.4 8.1 71 2.5 W 7 9 4 5 1015.0 1014.5 6.6
27/05:30am 13.6 11.6 8.7 72 2.5 SW 9 15 5 8 1014.7 1014.2 6.6
27/05:00am 14.3 12.8 9.1 71 2.7 WSW 7 11 4 6 1014.5 1014.0 6.6
27/04:30am 15.6 13.2 10.2 70 2.8 SW 13 20 7 11 1014.0 1013.6 6.6
27/04:00am 16.4 13.9 10.9 70 3.0 SSW 15 26 8 14 1013.6 1013.2 6.6
27/03:30am 16.8 16.1 11.3 70 3.0 W 6 9 3 5 1013.5 1013.1 6.6
27/03:00am 17.3 16.7 11.6 69 3.1 WSW 6 15 3 8 1013.2 1012.8 6.6
27/02:30am 17.9 17.4 12.1 69 3.2 W 6 11 3 6 1013.2 1012.8 6.6
27/02:00am 18.3 17.8 12.7 70 3.1 W 7 11 4 6 1013.2 1012.8 6.6
27/01:30am 18.6 18.6 13.7 73 2.8 W 6 9 3 5 1013.3 1012.9 6.6
27/01:00am 19.6 18.0 12.8 65 3.9 SSW 13 24 7 13 1013.4 1013.0 6.6
27/12:30am 19.2 19.5 15.1 77 2.4 WSW 7 11 4 6 1013.3 1012.9 6.6
27/12:00am 20.6 20.2 16.2 76 2.7 SSW 13 24 7 13 1013.1 1012.7 6.6
 
Date/Time
EST
Temp
°C
App
Temp
°C
Dew
Point
°C
Rel
Hum
%
Delta-T
°C
Wind Press
QNH
hPa
Press
MSL
hPa
Rain since
9am
mm
Dir  Spd
km/h
Gust
km/h
Spd
kts
Gust
kts
26/11:30pm 20.0 22.2 19.3 96 0.4 SW 6 7 3 4 1013.0 1012.6 6.6
26/11:00pm 20.8 24.3 20.3 97 0.3 WSW 2 4 1 2 1012.9 1012.5 6.6
26/10:30pm 20.8 23.8 20.1 96 0.5 SSE 4 6 2 3 1012.8 1012.4 6.6
26/10:00pm 20.9 24.3 20.2 96 0.5 SW 2 4 1 2 1013.0 1012.6 6.6
26/09:30pm 20.9 24.3 20.1 95 0.5 SE 2 6 1 3 1012.7 1012.3 6.6
26/09:00pm 21.0 24.8 20.2 95 0.5 CALM 0 0 0 0 1012.7 1012.3 6.6
26/08:30pm 21.1 24.1 20.1 94 0.6 NNE 4 6 2 3 1012.4 1012.0 6.6
26/08:00pm 21.1 25.0 20.3 95 0.5 CALM 0 0 0 0 1011.9 1011.5 6.6
26/07:30pm 21.1 24.2 19.6 91 1.0 SSW 2 6 1 3 1011.5 1011.1 6.6
26/07:00pm 21.7 25.4 20.0 90 1.1 CALM 0 4 0 2 1010.9 1010.5 2.8
26/06:30pm 21.9 25.6 20.0 89 1.2 CALM 0 0 0 0 1010.4 1010.0 2.8
26/06:00pm 22.2 25.9 19.9 87 1.5 CALM 0 0 0 0 1010.1 1009.7 2.8
26/05:30pm 22.2 25.6 19.4 84 1.8 CALM 0 2 0 1 1009.7 1009.3 2.8
26/05:00pm 22.8 25.7 19.0 79 2.4 WSW 2 4 1 2 1010.0 1009.6 2.8
26/04:30pm 23.0 25.6 20.1 84 1.9 SW 6 7 3 4 1009.7 1009.3 2.8
26/04:00pm 21.8 20.7 17.8 78 2.5 WSW 20 44 11 24 1010.2 1009.8 1.8
26/03:58pm 23.4 22.6 17.2 68 3.8 WSW 17 44 9 24 1010.0 1009.6 0.6
26/03:30pm 28.4 29.1 16.0 47 7.7 SW 7 13 4 7 1009.3 1008.8 0.0
26/03:00pm 29.6 30.4 16.4 45 8.3 WSW 7 11 4 6 1009.6 1009.1 0.0
26/02:30pm 28.4 29.1 16.0 47 7.7 WSW 7 11 4 6 1009.6 1009.1 0.0
26/02:00pm 27.7 28.7 16.3 49 7.1 WSW 6 7 3 4 1009.9 1009.5 0.0
26/01:30pm 28.4 29.3 16.0 47 7.7 W 6 11 3 6 1010.2 1009.8 0.0
26/01:00pm 29.8 30.1 15.1 40 9.0 NNW 7 20 4 11 1010.5 1010.1 0.0
26/12:30pm 28.3 28.7 16.2 47 7.5 SW 9 17 5 9 1011.3 1010.9 0.0
26/12:00pm 27.7 28.9 17.3 53 6.6 WSW 7 15 4 8 1012.0 1011.6 0.0
26/11:30am 27.3 28.3 16.9 53 6.5 SW 7 9 4 5 1012.8 1012.4 0.0
26/11:00am 26.9 28.0 16.5 53 6.5 NW 6 13 3 7 1013.4 1013.0 0.0
26/10:30am 25.6 27.6 17.8 62 4.9 WNW 4 9 2 5 1014.0 1013.6 0.0
26/10:00am 23.9 25.2 17.6 68 3.9 NNE 7 13 4 7 1014.6 1014.1 0.0
26/09:30am 22.8 24.6 17.3 71 3.4 N 4 6 2 3 1014.8 1014.3 0.0
26/09:00am 21.4 24.4 18.4 83 1.9 CALM 0 4 0 2 1015.2 1014.7 0.0
26/08:30am 19.0 20.8 18.2 95 0.5 W 6 9 3 5 1015.2 1014.7 0.0
26/08:00am 17.8 20.5 17.8 100 0.0 CALM 0 0 0 0 1014.7 1014.2 0.0
26/07:30am 16.9 19.3 16.9 100 0.0 CALM 0 0 0 0 1014.7 1014.2 0.0
26/07:00am 15.7 17.1 15.5 99 0.1 NNE 2 4 1 2 1014.7 1014.2 0.0
26/06:30am 15.4 16.7 15.1 98 0.2 W 2 4 1 2 1014.6 1014.1 0.0
26/06:00am 15.3 16.9 15.0 98 0.2 CALM 0 0 0 0 1014.6 1014.1 0.0
26/05:30am 15.6 17.3 15.3 98 0.2 CALM 0 0 0 0 1014.5 1014.0 0.0
26/05:00am 15.0 16.3 14.2 95 0.5 CALM 0 0 0 0 1014.3 1013.8 0.0
26/04:30am 15.3 16.8 14.7 96 0.3 CALM 0 0 0 0 1014.1 1013.7 0.0
26/04:00am 15.7 17.4 15.1 96 0.3 CALM 0 0 0 0 1014.3 1013.8 0.0
26/03:30am 15.8 17.5 15.2 96 0.3 CALM 0 0 0 0 1014.5 1014.0 0.0
26/03:00am 15.8 17.2 14.3 91 0.9 CALM 0 0 0 0 1014.3 1013.8 0.0
26/02:30am 16.5 18.4 15.7 95 0.5 CALM 0 0 0 0 1014.5 1014.0 0.0
26/02:00am 16.9 18.9 16.1 95 0.5 CALM 0 0 0 0 1014.6 1014.1 0.0
26/01:30am 17.1 19.1 16.1 94 0.6 CALM 0 0 0 0 1014.8 1014.3 0.0
26/01:00am 16.6 18.3 15.1 91 0.9 CALM 0 0 0 0 1014.8 1014.3 0.0
26/12:30am 16.6 18.3 15.1 91 0.9 CALM 0 0 0 0 1015.1 1014.6 0.0
26/12:00am 17.3 19.1 15.6 90 1.0 CALM 0 2 0 1 1015.4 1014.9 0.0
 
Date/Time
EST
Temp
°C
App
Temp
°C
Dew
Point
°C
Rel
Hum
%
Delta-T
°C
Wind Press
QNH
hPa
Press
MSL
hPa
Rain since
9am
mm
Dir  Spd
km/h
Gust
km/h
Spd
kts
Gust
kts
25/11:30pm 17.5 18.4 15.0 85 1.5 ESE 4 4 2 2 1015.6 1015.1 0.0
25/11:00pm 18.6 20.0 16.4 87 1.3 SE 4 4 2 2 1015.7 1015.2 0.0
25/10:30pm 18.6 20.5 15.7 83 1.7 CALM 0 2 0 1 1015.7 1015.2 0.0
25/10:00pm 19.2 20.0 15.9 81 2.0 ENE 6 6 3 3 1016.1 1015.6 0.0
25/09:30pm 19.4 20.1 16.1 81 2.0 E 7 7 4 4 1016.4 1015.9 0.0
25/09:00pm 19.6 20.3 15.7 78 2.3 ENE 6 7 3 4 1016.6 1016.1 0.0
25/08:30pm 20.4 21.9 15.8 75 2.8 NE 2 4 1 2 1016.5 1016.0 0.0
25/08:00pm 21.0 22.3 16.2 74 2.9 NE 4 9 2 5 1016.2 1015.7 0.0
25/07:30pm 20.7 21.0 14.6 68 3.6 NE 6 6 3 3 1015.7 1015.2 0.0
25/07:00pm 20.4 20.5 13.8 66 3.8 ENE 6 6 3 3 1015.3 1014.8 0.0
25/06:30pm 21.6 22.2 14.3 63 4.3 NNE 4 4 2 2 1015.0 1014.5 0.0
25/06:00pm 22.8 23.2 13.8 57 5.3 N 4 4 2 2 1015.0 1014.5 0.0
25/05:30pm 24.9 25.3 13.8 50 6.6 N 4 4 2 2 1014.7 1014.2 0.0
25/05:00pm 26.6 26.9 13.3 43 7.8 N 4 7 2 4 1014.7 1014.2 0.0
25/04:30pm 27.1 27.0 13.4 42 8.1 NE 6 9 3 5 1014.6 1014.1 0.0
25/04:00pm 27.4 27.2 13.7 43 8.2 NNE 7 13 4 7 1014.4 1013.9 0.0
25/03:30pm 27.4 26.5 12.6 40 8.7 N 9 13 5 7 1014.5 1014.0 0.0
25/03:00pm 26.5 26.1 12.5 41 8.1 N 6 11 3 6 1014.6 1014.1 0.0
25/02:30pm 27.7 27.5 12.9 40 8.7 NE 6 13 3 7 1014.9 1014.4 0.0
25/02:00pm 28.1 27.7 14.0 42 8.5 NE 9 17 5 9 1015.1 1014.6 0.0
25/01:30pm 27.1 26.1 13.4 42 8.1 NNE 11 19 6 10 1015.5 1015.0 0.0
25/01:00pm 26.5 27.0 14.9 49 7.0 SSE 6 11 3 6 1015.9 1015.4 0.0
25/12:30pm 26.0 26.9 15.1 51 6.6 SSW 4 9 2 5 1016.6 1016.1 0.0
25/12:00pm 26.3 27.3 16.3 54 6.2 ENE 6 9 3 5 1017.2 1016.7 0.0
25/11:30am 25.5 27.0 16.6 58 5.5 WNW 4 9 2 5 1017.8 1017.4 0.0
25/11:00am 25.1 26.5 16.3 58 5.4 NW 4 7 2 4 1018.4 1018.0 0.0

Other Formats:

Comma delimited format used in spreadsheet applications
http://www.bom.gov.au/fwo/IDQ60801/IDQ60801.95543.axf

JavaScript Object Notation format (JSON) in row-major order
http://www.bom.gov.au/fwo/IDQ60801/IDQ60801.95543.json